Time;durP1;ratioP1;P1;durP2;ratioP2;P2;SDS_P1;SDS_P2;PMS_P1;PMS_P2;Temp;Humidity;BMP_temperature;BMP_pressure;BME280_temperature;BME280_humidity;BME280_pressure;Samples;Min_cycle;Max_cycle;Signal;HPM_P1;HPM_P2
2023/10/08 00:01:35;;;;;;;4.88;1.48;;;;;;;18.62;61.83;100971.63;10376164;28;20129;-58
2023/10/08 00:06:37;;;;;;;5.70;1.63;;;;;;;18.68;61.69;100983.56;10381311;28;20037;-57
2023/10/08 00:11:40;;;;;;;3.70;1.55;;;;;;;18.68;61.86;100971.81;10384953;28;20049;-58
2023/10/08 00:16:41;;;;;;;3.17;1.50;;;;;;;18.66;61.84;100972.03;10379440;28;20100;-58
2023/10/08 00:21:44;;;;;;;5.40;1.73;;;;;;;18.62;62.05;100951.69;10376616;28;20044;-58
2023/10/08 00:26:47;;;;;;;8.18;1.73;;;;;;;18.67;62.07;100991.94;10378223;28;20049;-58
2023/10/08 00:31:51;;;;;;;6.38;1.60;;;;;;;18.65;62.11;100956.72;10376835;28;20065;-59
2023/10/08 00:36:53;;;;;;;6.10;1.42;;;;;;;18.68;62.03;100974.53;10377374;28;20900;-58
2023/10/08 00:42:04;;;;;;;4.20;1.90;;;;;;;18.71;62.11;100955.88;10383000;28;20053;-59
2023/10/08 00:47:06;;;;;;;6.88;1.98;;;;;;;18.63;62.20;100959.66;10383314;28;20642;-58
2023/10/08 00:57:17;;;;;;;7.88;1.58;;;;;;;18.58;62.52;100947.75;10378157;28;20041;-58
2023/10/08 01:02:24;;;;;;;5.88;2.05;;;;;;;18.56;62.60;100945.25;10376232;28;20048;-59
2023/10/08 01:07:27;;;;;;;3.72;1.58;;;;;;;18.58;62.44;100954.03;10379741;28;20562;-59
2023/10/08 01:12:35;;;;;;;4.13;1.60;;;;;;;18.60;62.34;100965.56;10378536;28;20056;-59
2023/10/08 01:17:46;;;;;;;5.68;2.15;;;;;;;18.54;62.48;100962.84;10377128;28;20052;-59
2023/10/08 01:22:48;;;;;;;4.93;1.60;;;;;;;18.57;62.40;100965.16;10376508;28;20096;-56
2023/10/08 01:27:55;;;;;;;5.20;1.50;;;;;;;18.55;62.47;100965.34;10377228;28;20045;-57
2023/10/08 01:32:56;;;;;;;5.10;1.55;;;;;;;18.50;62.68;100978.75;10378434;28;20516;-58
2023/10/08 01:37:59;;;;;;;8.00;1.45;;;;;;;18.60;62.29;100987.34;10380504;28;20570;-58
2023/10/08 01:43:04;;;;;;;6.05;2.20;;;;;;;18.62;62.28;100995.28;10380227;28;20051;-59
2023/10/08 01:48:05;;;;;;;3.45;1.48;;;;;;;18.59;62.33;100993.81;10378291;28;20041;-58
2023/10/08 01:53:09;;;;;;;5.13;1.40;;;;;;;18.49;62.69;100996.16;10385586;28;20416;-56
2023/10/08 01:58:13;;;;;;;10.43;1.77;;;;;;;18.49;62.56;100996.16;10381381;28;20113;-57
2023/10/08 02:03:16;;;;;;;4.40;1.13;;;;;;;18.42;62.63;101004.34;10381943;28;20441;-57
2023/10/08 02:08:17;;;;;;;5.18;2.05;;;;;;;18.41;62.66;101008.09;10385720;28;20041;-56
2023/10/08 02:13:19;;;;;;;5.78;1.80;;;;;;;18.37;62.87;100995.13;10380914;28;20057;-57
2023/10/08 02:18:23;;;;;;;6.45;1.50;;;;;;;18.39;63.15;100995.75;10385387;28;20140;-56
2023/10/08 02:23:25;;;;;;;5.72;1.90;;;;;;;18.31;63.20;100975.03;10381212;28;20655;-57
2023/10/08 02:28:26;;;;;;;5.88;1.50;;;;;;;18.24;63.32;100979.66;10381347;28;20044;-57
2023/10/08 02:33:28;;;;;;;4.80;1.30;;;;;;;18.26;63.39;100972.09;10385276;28;20056;-58
2023/10/08 02:38:29;;;;;;;3.95;1.85;;;;;;;18.27;63.34;100952.03;10386265;28;20099;-57
2023/10/08 02:43:31;;;;;;;6.00;1.70;;;;;;;18.28;63.42;100966.47;10382841;28;20099;-58
2023/10/08 02:48:34;;;;;;;5.45;1.52;;;;;;;18.30;63.52;100972.53;10384118;28;20042;-57
2023/10/08 02:53:36;;;;;;;4.15;1.70;;;;;;;18.34;63.53;101012.72;10385713;28;20941;-57
2023/10/08 02:58:39;;;;;;;7.43;1.63;;;;;;;18.46;63.12;100987.56;10378935;28;20069;-57
2023/10/08 03:03:42;;;;;;;9.23;2.35;;;;;;;18.42;63.27;100992.59;10382351;28;20037;-57
2023/10/08 03:08:43;;;;;;;3.83;1.60;;;;;;;18.42;63.15;101000.75;10383992;28;20034;-57
2023/10/08 03:13:52;;;;;;;4.15;1.48;;;;;;;18.40;63.28;101022.78;10377620;28;20089;-56
2023/10/08 03:18:57;;;;;;;4.75;1.60;;;;;;;18.37;63.32;101036.78;10382601;28;20038;-57
2023/10/08 03:23:58;;;;;;;4.40;1.75;;;;;;;18.50;62.92;101030.50;10380969;28;20054;-57
2023/10/08 03:29:05;;;;;;;4.03;1.40;;;;;;;18.35;63.40;101046.22;10378632;28;20052;-56
2023/10/08 03:34:07;;;;;;;5.15;1.92;;;;;;;18.41;63.01;101061.72;10384511;28;20081;-56
2023/10/08 03:39:13;;;;;;;6.78;2.10;;;;;;;18.32;63.17;101057.53;10382628;28;20046;-59
2023/10/08 03:44:16;;;;;;;5.23;2.20;;;;;;;18.22;63.77;101049.78;10389281;28;20076;-57
2023/10/08 03:54:29;;;;;;;3.95;1.15;;;;;;;18.13;63.67;101048.34;10378441;28;20425;-56
2023/10/08 03:59:31;;;;;;;7.65;2.83;;;;;;;18.15;63.52;101057.13;10379335;28;20054;-57
2023/10/08 04:05:19;;;;;;;4.75;1.75;;;;;;;18.15;63.60;101041.63;10377677;28;20052;-56
2023/10/08 04:15:16;;;;;;;5.20;2.20;;;;;;;18.18;63.49;101033.03;10380117;28;20046;-57
2023/10/08 04:20:38;;;;;;;7.18;1.95;;;;;;;18.19;63.67;101021.09;10380102;28;20049;-58
2023/10/08 04:25:43;;;;;;;5.93;2.35;;;;;;;18.13;63.71;101011.06;10381754;28;20508;-58
2023/10/08 04:30:45;;;;;;;9.57;4.13;;;;;;;18.10;63.78;101010.63;10377606;28;20033;-57
2023/10/08 04:35:51;;;;;;;6.43;1.83;;;;;;;18.00;64.07;101024.66;10375538;28;20061;-56
2023/10/08 04:40:53;;;;;;;5.65;2.03;;;;;;;17.91;64.21;101018.59;10379736;28;20502;-58
2023/10/08 04:45:58;;;;;;;5.68;1.80;;;;;;;17.82;64.41;101030.69;10373985;28;20133;-56
2023/10/08 04:50:59;;;;;;;5.13;1.67;;;;;;;17.85;64.19;101049.31;10375887;28;20049;-56
2023/10/08 04:56:13;;;;;;;4.07;1.73;;;;;;;17.76;64.62;101047.84;10380528;28;20049;-57
2023/10/08 05:17:10;;;;;;;6.47;2.38;;;;;;;17.91;64.17;101059.41;10312921;28;20077;-57
2023/10/08 05:22:43;;;;;;;7.45;2.30;;;;;;;17.96;64.04;101054.16;10332977;28;20042;-58
2023/10/08 05:48:45;;;;;;;6.75;2.15;;;;;;;17.71;64.94;101023.13;10341018;28;20096;-60
2023/10/08 05:53:49;;;;;;;5.72;1.92;;;;;;;17.69;65.05;101028.75;10337425;28;20050;-61
2023/10/08 05:59:13;;;;;;;7.18;2.40;;;;;;;17.67;65.04;101040.91;10336328;28;20061;-59
2023/10/08 06:04:42;;;;;;;4.65;1.98;;;;;;;17.62;65.38;101069.53;10338614;28;20050;-60
2023/10/08 06:09:50;;;;;;;7.05;2.17;;;;;;;17.71;65.02;101094.66;10343275;28;20046;-60
2023/10/08 06:15:07;;;;;;;5.53;2.13;;;;;;;17.76;64.99;101099.50;10339485;28;20137;-59
2023/10/08 06:20:09;;;;;;;4.45;2.25;;;;;;;17.60;65.72;101087.94;10339174;28;20050;-61
2023/10/08 06:25:22;;;;;;;4.85;2.20;;;;;;;17.69;65.49;101094.03;10339479;28;20164;-61
2023/10/08 06:30:29;;;;;;;10.18;2.40;;;;;;;17.83;65.27;101101.22;10341524;28;20038;-60
2023/10/08 06:35:32;;;;;;;6.40;2.17;;;;;;;17.92;65.06;101118.19;10336968;28;20042;-60
2023/10/08 06:45:42;;;;;;;3.90;1.95;;;;;;;18.01;64.85;101087.03;10342518;28;20057;-60
2023/10/08 06:50:44;;;;;;;7.32;2.20;;;;;;;18.03;65.23;101111.31;10341711;28;20068;-61
2023/10/08 06:55:48;;;;;;;5.43;2.42;;;;;;;18.08;65.22;101122.41;10342326;28;20042;-60
2023/10/08 07:00:50;;;;;;;7.88;2.42;;;;;;;18.24;64.81;101142.94;10341732;28;20044;-59
2023/10/08 07:05:57;;;;;;;5.78;2.17;;;;;;;18.40;64.38;101160.75;10336538;28;20409;-59
2023/10/08 07:11:06;;;;;;;6.00;2.17;;;;;;;18.50;64.36;101169.34;10337972;28;20057;-59
2023/10/08 07:16:11;;;;;;;4.05;1.77;;;;;;;18.63;63.81;101171.25;10342616;28;20046;-59
2023/10/08 07:21:12;;;;;;;10.38;3.00;;;;;;;18.65;63.87;101176.50;10334178;28;20037;-61
2023/10/08 07:26:17;;;;;;;5.28;2.55;;;;;;;18.67;63.84;101169.78;10337596;28;20141;-60
2023/10/08 07:31:21;;;;;;;8.05;2.03;;;;;;;18.76;63.78;101154.06;10339518;28;20536;-60
2023/10/08 07:36:26;;;;;;;6.43;2.50;;;;;;;18.71;63.98;101127.47;10338013;28;20058;-60
2023/10/08 07:41:29;;;;;;;8.75;2.42;;;;;;;18.80;63.70;101139.84;10335980;28;20050;-60
2023/10/08 07:46:31;;;;;;;5.65;2.08;;;;;;;18.95;63.73;101126.00;10338594;28;20042;-60
2023/10/08 07:51:34;;;;;;;4.43;2.72;;;;;;;19.07;63.15;101118.00;10335394;28;20116;-59
2023/10/08 07:56:37;;;;;;;10.98;2.65;;;;;;;19.11;62.94;101111.06;10338502;28;20046;-59
2023/10/08 08:01:40;;;;;;;6.65;2.10;;;;;;;19.17;62.88;101144.81;10333084;28;20076;-60
2023/10/08 08:06:42;;;;;;;6.13;1.52;;;;;;;19.37;62.22;101142.88;10337092;28;20120;-60
2023/10/08 08:11:45;;;;;;;5.10;2.15;;;;;;;19.42;62.26;101142.22;10335111;28;20046;-61
2023/10/08 08:16:48;;;;;;;6.28;2.30;;;;;;;19.50;61.91;101141.16;10335504;28;20688;-60
2023/10/08 08:21:52;;;;;;;8.20;2.20;;;;;;;19.63;61.56;101152.03;10337993;28;20053;-60
2023/10/08 08:27:08;;;;;;;8.00;1.92;;;;;;;19.65;61.64;101149.91;10332196;28;20057;-61
2023/10/08 08:32:15;;;;;;;5.72;2.00;;;;;;;19.77;61.46;101175.50;10332644;28;20042;-60
2023/10/08 08:37:17;;;;;;;6.68;2.30;;;;;;;19.95;60.67;101180.22;10331782;28;20059;-60
2023/10/08 08:42:22;;;;;;;8.18;2.42;;;;;;;20.06;60.45;101180.59;10330959;28;20049;-60
2023/10/08 08:47:28;;;;;;;3.60;1.30;;;;;;;20.30;60.44;101198.94;10331819;28;20053;-59
2023/10/08 08:52:29;;;;;;;5.43;2.13;;;;;;;20.66;59.86;101200.19;10329267;28;20056;-60
2023/10/08 08:57:31;;;;;;;8.35;2.17;;;;;;;21.00;59.06;101195.28;10335206;28;20102;-59
2023/10/08 09:02:35;;;;;;;6.95;2.00;;;;;;;21.06;58.99;101194.38;10330784;28;20072;-59
2023/10/08 09:07:36;;;;;;;6.93;2.10;;;;;;;21.28;58.03;101215.84;10332708;28;20136;-61
2023/10/08 09:12:37;;;;;;;10.05;2.50;;;;;;;21.24;57.99;101222.81;10334440;28;20049;-59
2023/10/08 09:17:39;;;;;;;9.35;2.42;;;;;;;21.48;57.28;101216.47;10332765;28;20046;-60
2023/10/08 09:22:41;;;;;;;5.60;1.48;;;;;;;21.76;56.70;101223.31;10338125;28;20057;-60
2023/10/08 09:27:46;;;;;;;6.30;1.77;;;;;;;21.82;56.15;101203.28;10336033;28;20050;-59
2023/10/08 09:32:49;;;;;;;5.47;1.48;;;;;;;22.08;55.77;101198.50;10330257;28;20560;-60
2023/10/08 09:37:53;;;;;;;6.15;2.05;;;;;;;22.20;55.76;101213.09;10328307;28;20047;-59
2023/10/08 09:42:55;;;;;;;9.88;2.38;;;;;;;22.54;54.72;101211.53;10327180;28;20051;-60
2023/10/08 09:48:01;;;;;;;4.22;1.83;;;;;;;22.55;54.75;101196.78;10330716;28;20043;-60
2023/10/08 09:53:16;;;;;;;6.47;1.77;;;;;;;22.71;54.23;101200.75;10336635;28;20196;-60
2023/10/08 09:58:19;;;;;;;7.03;2.55;;;;;;;22.61;54.52;101200.50;10338036;28;20641;-59
2023/10/08 10:03:22;;;;;;;4.40;1.48;;;;;;;22.51;54.17;101212.03;10337390;28;20600;-60
2023/10/08 10:08:26;;;;;;;12.80;2.05;;;;;;;22.60;53.82;101211.69;10328867;28;20127;-60
2023/10/08 10:13:33;;;;;;;5.75;1.92;;;;;;;22.81;53.62;101202.06;10339319;28;20058;-59
2023/10/08 10:18:34;;;;;;;6.35;1.67;;;;;;;22.73;53.63;101219.72;10340258;28;20046;-60
2023/10/08 10:23:40;;;;;;;5.55;2.22;;;;;;;22.73;53.26;101226.00;10342252;28;20050;-59
2023/10/08 10:28:43;;;;;;;9.18;1.90;;;;;;;22.71;53.27;101210.84;10339562;28;20053;-58
2023/10/08 10:33:46;;;;;;;5.32;1.98;;;;;;;22.77;53.14;101218.16;10346616;28;20060;-60
2023/10/08 10:38:49;;;;;;;7.13;1.67;;;;;;;22.64;53.13;101237.56;10337950;28;20575;-61
2023/10/08 10:43:52;;;;;;;8.05;2.10;;;;;;;22.50;52.99;101231.44;10339209;28;20061;-60
2023/10/08 10:49:05;;;;;;;7.15;2.17;;;;;;;22.46;53.71;101241.19;10336598;28;20081;-59
2023/10/08 10:54:19;;;;;;;6.40;1.80;;;;;;;22.82;52.53;101250.34;10346636;28;20050;-60
2023/10/08 10:59:27;;;;;;;6.28;1.98;;;;;;;23.01;52.18;101237.38;10335640;28;20066;-59
2023/10/08 11:04:28;;;;;;;6.07;1.60;;;;;;;23.15;52.12;101244.34;10334631;28;20038;-59
2023/10/08 11:09:37;;;;;;;5.82;1.90;;;;;;;23.33;51.74;101249.69;10337841;28;20556;-59
2023/10/08 11:14:42;;;;;;;5.40;1.80;;;;;;;23.61;51.36;101256.34;10334880;28;20125;-58
2023/10/08 11:19:46;;;;;;;6.15;2.90;;;;;;;23.57;51.16;101252.44;10339305;28;20050;-60
2023/10/08 11:24:48;;;;;;;5.15;1.90;;;;;;;23.79;50.50;101243.59;10338604;28;20057;-58
2023/10/08 11:29:56;;;;;;;4.47;1.55;;;;;;;23.72;50.82;101232.72;10337660;28;20048;-59
2023/10/08 11:34:59;;;;;;;5.20;2.85;;;;;;;23.79;51.06;101219.69;10338262;28;20048;-59
2023/10/08 11:40:17;;;;;;;7.65;1.85;;;;;;;23.95;50.77;101209.88;10336229;28;20142;-60
2023/10/08 11:45:18;;;;;;;9.13;2.20;;;;;;;24.64;48.78;101212.53;10350496;28;20046;-60
2023/10/08 11:50:22;;;;;;;8.43;2.38;;;;;;;24.81;48.73;101212.56;10338513;28;20634;-59
2023/10/08 11:55:27;;;;;;;5.63;2.20;;;;;;;24.81;48.21;101212.56;10342301;28;20046;-60
2023/10/08 12:00:29;;;;;;;6.13;1.73;;;;;;;24.80;48.66;101199.06;10334051;28;20038;-60
2023/10/08 12:05:34;;;;;;;4.75;2.15;;;;;;;25.04;47.99;101175.81;10336865;28;20644;-62
2023/10/08 12:10:36;;;;;;;6.15;1.63;;;;;;;25.22;47.82;101202.22;10334499;28;20060;-61
2023/10/08 12:15:44;;;;;;;8.75;2.00;;;;;;;25.11;47.86;101203.13;10337231;28;20049;-63
2023/10/08 12:20:46;;;;;;;7.95;2.03;;;;;;;25.18;48.03;101211.19;10330904;28;20049;-62
2023/10/08 12:25:51;;;;;;;7.03;2.50;;;;;;;25.49;47.44;101198.72;10335711;28;20058;-63
2023/10/08 12:30:55;;;;;;;9.23;1.88;;;;;;;26.02;46.32;101205.47;10335971;28;20042;-63
2023/10/08 12:35:58;;;;;;;4.35;2.33;;;;;;;26.89;44.46;101206.31;10338208;28;20034;-62
2023/10/08 12:41:08;;;;;;;8.88;1.88;;;;;;;26.81;44.78;101201.28;10336025;28;20058;-63
2023/10/08 12:46:18;;;;;;;9.60;2.45;;;;;;;26.83;44.79;101201.03;10334742;28;20141;-64
2023/10/08 12:51:25;;;;;;;6.30;2.03;;;;;;;26.45;44.97;101197.38;10334350;28;20042;-63
2023/10/08 12:56:35;;;;;;;6.78;2.03;;;;;;;26.11;46.31;101192.09;10332558;28;20042;-62
2023/10/08 13:01:41;;;;;;;6.38;2.00;;;;;;;26.01;45.97;101190.03;10327391;28;20129;-63
2023/10/08 13:06:45;;;;;;;7.40;1.88;;;;;;;25.98;45.80;101187.78;10336700;28;20486;-61
2023/10/08 13:11:47;;;;;;;8.48;2.15;;;;;;;26.10;46.33;101191.22;10328316;28;20424;-62
2023/10/08 13:16:53;;;;;;;5.80;2.65;;;;;;;26.46;45.47;101196.28;10331441;28;20049;-61
2023/10/08 13:21:55;;;;;;;6.47;2.25;;;;;;;26.26;46.32;101183.97;10335166;28;20057;-61
2023/10/08 13:26:58;;;;;;;6.32;1.95;;;;;;;26.26;46.68;101183.13;10333308;28;20046;-61
2023/10/08 13:32:00;;;;;;;4.07;1.73;;;;;;;26.10;46.82;101191.22;10332703;28;20127;-62
2023/10/08 13:37:02;;;;;;;5.45;1.45;;;;;;;26.16;47.18;101192.13;10334178;28;20037;-63
2023/10/08 13:42:03;;;;;;;4.75;1.52;;;;;;;26.12;46.76;101199.25;10333496;28;20041;-63
2023/10/08 13:47:05;;;;;;;2.78;1.30;;;;;;;26.36;46.76;101174.13;10336623;28;20065;-63
2023/10/08 13:52:07;;;;;;;7.43;1.33;;;;;;;26.46;46.07;101188.00;10338822;28;20496;-63
2023/10/08 13:57:14;;;;;;;7.13;1.88;;;;;;;26.44;46.50;101162.59;10342426;28;20046;-63
2023/10/08 14:02:19;;;;;;;4.50;1.45;;;;;;;26.29;46.54;101177.09;10331330;28;20056;-63
2023/10/08 14:07:21;;;;;;;9.70;1.38;;;;;;;26.12;46.65;101167.00;10344760;28;20051;-63
2023/10/08 14:12:23;;;;;;;3.75;1.05;;;;;;;26.00;47.08;101171.84;10340406;28;20159;-63
2023/10/08 14:17:42;;;;;;;5.38;1.40;;;;;;;25.68;47.13;101178.06;10340384;28;20078;-64
2023/10/08 14:22:44;;;;;;;7.22;1.48;;;;;;;25.30;47.57;101165.19;10336972;28;20061;-63
2023/10/08 14:27:51;;;;;;;2.35;1.00;;;;;;;24.85;48.36;101158.72;10341935;28;20509;-63
2023/10/08 14:32:57;;;;;;;2.95;0.80;;;;;;;24.49;49.17;101163.63;10339702;28;20551;-63
2023/10/08 14:43:23;;;;;;;7.75;2.00;;;;;;;23.71;49.96;101165.16;10343180;28;20046;-62
2023/10/08 14:48:27;;;;;;;7.30;0.90;;;;;;;23.46;50.29;101151.72;10333403;28;20080;-61
2023/10/08 14:53:31;;;;;;;3.10;0.90;;;;;;;23.29;50.70;101140.69;10336363;28;20058;-62
2023/10/08 14:58:33;;;;;;;3.78;0.90;;;;;;;23.01;51.04;101153.19;10338245;28;20066;-61
2023/10/08 15:03:36;;;;;;;3.28;0.82;;;;;;;22.71;51.63;101145.94;10334309;28;20046;-61
2023/10/08 15:08:38;;;;;;;4.13;0.80;;;;;;;22.57;51.64;101141.72;10338058;28;20042;-62
2023/10/08 15:13:39;;;;;;;3.03;0.95;;;;;;;22.32;52.35;101147.41;10336653;28;20484;-63
2023/10/08 15:18:42;;;;;;;3.25;0.68;;;;;;;22.22;53.05;101137.00;10336680;28;20501;-63
2023/10/08 15:23:47;;;;;;;2.80;0.80;;;;;;;22.21;52.64;101129.81;10331466;28;20066;-62
2023/10/08 15:28:48;;;;;;;4.55;0.80;;;;;;;22.11;52.71;101130.41;10333118;28;20148;-63
2023/10/08 15:33:50;;;;;;;7.32;0.47;;;;;;;21.88;53.24;101130.31;10332994;28;20042;-58
2023/10/08 15:38:53;;;;;;;5.50;0.60;;;;;;;21.55;53.96;101142.56;10336362;28;20060;-60
2023/10/08 15:43:58;;;;;;;2.05;0.50;;;;;;;21.37;54.20;101114.09;10336527;28;20050;-59
2023/10/08 15:49:02;;;;;;;6.38;0.60;;;;;;;21.27;54.50;101132.09;10333279;28;20136;-59
2023/10/08 15:54:05;;;;;;;4.97;0.70;;;;;;;20.94;55.58;101136.88;10332720;28;20070;-58
2023/10/08 15:59:07;;;;;;;4.00;0.70;;;;;;;20.77;55.38;101149.44;10335350;28;20457;-59
2023/10/08 16:04:09;;;;;;;3.22;0.57;;;;;;;20.56;55.79;101146.00;10332934;28;20057;-62
2023/10/08 16:09:12;;;;;;;4.60;0.60;;;;;;;20.43;56.13;101164.41;10335154;28;20054;-60
2023/10/08 16:14:13;;;;;;;7.35;0.80;;;;;;;20.37;56.34;101175.13;10333918;28;20097;-60
2023/10/08 16:19:15;;;;;;;1.90;0.63;;;;;;;20.31;56.24;101172.47;10341639;28;20053;-59
2023/10/08 16:24:17;;;;;;;3.45;0.60;;;;;;;20.26;56.27;101170.41;10336328;28;20042;-59
2023/10/08 16:29:20;;;;;;;3.20;0.70;;;;;;;20.04;56.88;101158.13;10338087;28;20126;-59
2023/10/08 16:34:21;;;;;;;4.95;0.55;;;;;;;19.97;57.24;101156.28;10332522;28;20050;-59
2023/10/08 16:39:25;;;;;;;3.42;0.60;;;;;;;19.92;57.01;101175.19;10335381;28;20054;-61
2023/10/08 16:44:27;;;;;;;4.35;0.88;;;;;;;19.81;57.73;101184.09;10331784;28;20446;-62
2023/10/08 16:49:29;;;;;;;3.92;0.70;;;;;;;19.81;57.34;101148.63;10326941;28;20398;-62
2023/10/08 16:54:30;;;;;;;3.33;0.70;;;;;;;19.83;57.85;101142.91;10332811;28;20057;-62
2023/10/08 16:59:31;;;;;;;5.03;1.00;;;;;;;19.74;58.18;101121.34;10331355;28;20061;-61
2023/10/08 17:04:33;;;;;;;7.57;0.90;;;;;;;19.73;57.87;101113.41;10331321;28;20044;-61
2023/10/08 17:09:35;;;;;;;3.03;0.63;;;;;;;19.68;58.52;101143.19;10327076;28;20428;-62
2023/10/08 17:14:37;;;;;;;5.97;1.67;;;;;;;19.56;58.53;101146.56;10325157;28;20341;-62
2023/10/08 17:19:39;;;;;;;6.13;0.93;;;;;;;19.49;58.92;101136.75;10333420;28;20074;-61
2023/10/08 17:24:41;;;;;;;5.07;0.93;;;;;;;19.39;59.21;101148.09;10332367;28;20058;-62
2023/10/08 17:29:43;;;;;;;6.30;0.80;;;;;;;19.32;59.23;101152.75;10343319;28;20561;-58
2023/10/08 17:34:46;;;;;;;7.57;0.90;;;;;;;19.16;59.94;101145.88;10343506;28;20105;-57
2023/10/08 17:39:47;;;;;;;4.03;0.80;;;;;;;19.09;60.07;101142.31;10345237;28;20508;-58
2023/10/08 17:44:49;;;;;;;3.15;0.90;;;;;;;18.95;60.39;101142.34;10341757;28;20045;-57
2023/10/08 17:49:51;;;;;;;2.80;1.30;;;;;;;18.78;60.80;101146.53;10339498;28;20045;-58
2023/10/08 17:54:52;;;;;;;5.35;1.25;;;;;;;18.71;61.02;101159.31;10346559;28;20054;-58
2023/10/08 17:59:54;;;;;;;8.38;0.80;;;;;;;18.53;61.33;101149.88;10343038;28;20133;-59
2023/10/08 18:04:56;;;;;;;3.47;0.80;;;;;;;18.45;61.65;101127.47;10339935;28;20046;-59
2023/10/08 18:09:58;;;;;;;4.40;1.20;;;;;;;18.35;62.05;101117.84;10336738;28;20054;-59
2023/10/08 18:15:00;;;;;;;4.93;1.23;;;;;;;18.31;62.01;101124.75;10339459;28;20053;-59
2023/10/08 18:20:02;;;;;;;4.95;1.13;;;;;;;18.27;62.07;101128.94;10341942;28;20053;-58
2023/10/08 18:25:03;;;;;;;4.43;0.80;;;;;;;18.12;62.41;101110.06;10332145;28;20050;-58
2023/10/08 18:30:06;;;;;;;3.17;0.60;;;;;;;18.13;62.30;101124.53;10336723;28;20053;-58
2023/10/08 18:35:12;;;;;;;4.57;0.88;;;;;;;18.07;62.29;101126.19;10339202;28;20046;-59
2023/10/08 18:40:14;;;;;;;4.77;1.00;;;;;;;17.96;62.76;101124.88;10337118;28;20057;-60
2023/10/08 18:45:16;;;;;;;2.35;0.65;;;;;;;17.83;62.89;101106.66;10333597;28;22291;-59
2023/10/08 18:50:22;;;;;;;2.97;0.70;;;;;;;17.92;62.75;101099.16;10333320;28;20046;-59
2023/10/08 18:55:24;;;;;;;2.65;0.70;;;;;;;17.96;62.59;101096.84;10341104;28;20133;-59
2023/10/08 19:00:33;;;;;;;3.85;1.23;;;;;;;17.93;62.57;101091.81;10332242;28;20695;-58
2023/10/08 19:05:36;;;;;;;4.40;0.95;;;;;;;17.90;62.83;101093.06;10332234;28;20070;-58
2023/10/08 19:10:38;;;;;;;1.77;0.95;;;;;;;17.82;62.92;101080.47;10323335;28;20053;-58
2023/10/08 19:15:39;;;;;;;2.08;0.70;;;;;;;17.67;63.17;101079.78;10335037;28;20047;-58
2023/10/08 19:20:41;;;;;;;4.03;1.00;;;;;;;17.59;63.43;101069.09;10341181;28;20412;-58
2023/10/08 19:25:50;;;;;;;5.80;1.10;;;;;;;17.54;63.49;101066.19;10329869;28;20251;-59
2023/10/08 19:30:54;;;;;;;5.95;1.10;;;;;;;17.47;63.64;101066.16;10336795;28;20513;-58
2023/10/08 19:35:57;;;;;;;4.40;1.00;;;;;;;17.41;63.70;101066.97;10336689;28;20054;-59
2023/10/08 19:40:59;;;;;;;4.32;0.98;;;;;;;17.33;64.06;101053.56;10340469;28;20058;-58
2023/10/08 19:46:01;;;;;;;3.05;1.10;;;;;;;17.22;64.16;101049.56;10336576;28;20052;-58
2023/10/08 19:51:10;;;;;;;4.20;1.08;;;;;;;17.16;64.26;101048.47;10332924;28;20058;-58
2023/10/08 19:56:12;;;;;;;2.65;1.35;;;;;;;17.07;64.47;101057.84;10333612;28;20046;-58
2023/10/08 20:01:13;;;;;;;7.13;1.58;;;;;;;16.98;64.48;101057.19;10332704;28;20046;-57
2023/10/08 20:06:18;;;;;;;4.25;1.10;;;;;;;16.88;65.07;101053.97;10332833;28;20046;-58
2023/10/08 20:11:21;;;;;;;4.43;1.25;;;;;;;16.83;64.99;101056.47;10335292;28;20555;-58
2023/10/08 20:16:24;;;;;;;2.63;1.77;;;;;;;16.78;65.10;101057.00;10335692;28;20045;-58
2023/10/08 20:21:28;;;;;;;4.05;1.13;;;;;;;16.68;65.32;101061.13;10338208;28;20057;-59
2023/10/08 20:26:30;;;;;;;4.32;1.15;;;;;;;16.60;65.25;101059.41;10325874;28;20212;-58
2023/10/08 20:31:31;;;;;;;6.20;1.33;;;;;;;16.58;65.28;101054.16;10337696;28;20429;-61
2023/10/08 20:36:34;;;;;;;3.65;0.90;;;;;;;16.53;65.54;101061.22;10334566;28;20054;-61
2023/10/08 20:41:37;;;;;;;4.90;1.02;;;;;;;16.50;65.45;101053.50;10327150;28;20038;-61
2023/10/08 20:46:39;;;;;;;4.43;1.02;;;;;;;16.48;65.57;101050.13;10329307;28;20434;-61
2023/10/08 20:51:43;;;;;;;3.60;0.95;;;;;;;16.43;65.53;101050.75;10327301;28;20132;-62
2023/10/08 20:56:44;;;;;;;3.45;0.90;;;;;;;16.41;65.56;101042.78;10326229;28;20057;-61
2023/10/08 21:01:46;;;;;;;2.53;0.70;;;;;;;16.38;65.68;101050.47;10330191;28;20816;-62
2023/10/08 21:06:49;;;;;;;5.63;1.13;;;;;;;16.34;65.71;101043.78;10333997;28;20706;-62
2023/10/08 21:11:51;;;;;;;2.90;0.90;;;;;;;16.34;65.72;101036.47;10334779;28;20045;-60
2023/10/08 21:16:54;;;;;;;2.55;0.80;;;;;;;16.36;65.70;101031.66;10338822;28;20042;-58
2023/10/08 21:21:57;;;;;;;3.05;1.17;;;;;;;16.36;65.34;101028.97;10332620;28;20053;-58
2023/10/08 21:26:58;;;;;;;3.78;1.55;;;;;;;16.33;65.73;101021.22;10336368;28;20052;-58
2023/10/08 21:31:59;;;;;;;4.82;1.15;;;;;;;16.34;65.43;101017.47;10333956;28;20096;-58
2023/10/08 21:37:04;;;;;;;5.38;1.42;;;;;;;16.29;65.58;101005.53;10335003;28;20049;-59
2023/10/08 21:42:06;;;;;;;5.93;0.98;;;;;;;16.21;65.69;100985.66;10334924;28;20049;-58
2023/10/08 21:47:07;;;;;;;5.85;0.80;;;;;;;16.17;65.64;100980.81;10336713;28;20140;-58
2023/10/08 21:52:09;;;;;;;5.00;1.23;;;;;;;16.10;65.64;100980.78;10335509;28;20100;-58
2023/10/08 21:57:10;;;;;;;3.53;1.25;;;;;;;16.06;66.00;100974.06;10330540;28;20046;-58
2023/10/08 22:02:12;;;;;;;2.60;0.70;;;;;;;16.05;66.16;100967.81;10332610;28;20041;-58
2023/10/08 22:07:13;;;;;;;6.03;1.20;;;;;;;16.00;65.94;100966.72;10335646;28;20042;-57
2023/10/08 22:12:16;;;;;;;2.67;1.35;;;;;;;15.92;66.45;100973.13;10337360;28;20065;-58
2023/10/08 22:17:17;;;;;;;3.08;0.82;;;;;;;15.85;66.31;100974.94;10333427;28;20058;-57
2023/10/08 22:22:20;;;;;;;3.33;0.68;;;;;;;15.71;66.69;100971.22;10336554;28;20041;-57
2023/10/08 22:27:27;;;;;;;4.50;0.90;;;;;;;15.64;67.22;100968.47;10334967;28;20043;-58
2023/10/08 22:32:29;;;;;;;3.88;1.10;;;;;;;15.69;66.97;100958.91;10337685;28;20509;-57
2023/10/08 22:37:56;;;;;;;1.55;0.70;;;;;;;15.72;66.85;100943.09;10335920;28;20120;-58
2023/10/08 22:42:56;;;;;;;3.58;1.15;;;;;;;15.74;66.75;100951.91;10336105;28;20046;-55
2023/10/08 22:47:58;;;;;;;4.35;0.90;;;;;;;15.78;66.98;100947.78;10337681;28;20042;-55
2023/10/08 22:53:01;;;;;;;2.75;0.73;;;;;;;15.76;66.78;100941.72;10332808;28;20065;-56
2023/10/08 22:58:07;;;;;;;2.45;0.90;;;;;;;15.73;67.21;100946.69;10333396;28;20516;-56
2023/10/08 23:03:11;;;;;;;3.35;0.68;;;;;;;15.76;67.07;100943.59;10331891;28;20050;-55
2023/10/08 23:08:13;;;;;;;3.22;0.93;;;;;;;15.82;67.24;100938.22;10337924;28;20065;-56
2023/10/08 23:13:16;;;;;;;1.90;0.73;;;;;;;15.84;67.06;100927.19;10334632;28;20035;-56
2023/10/08 23:18:23;;;;;;;3.50;0.85;;;;;;;15.87;67.28;100926.75;10335436;28;20046;-55
2023/10/08 23:23:26;;;;;;;2.03;0.75;;;;;;;15.90;67.06;100920.97;10332852;28;20397;-57
2023/10/08 23:28:28;;;;;;;4.78;0.90;;;;;;;15.89;67.20;100911.13;10351269;28;20038;-56
2023/10/08 23:33:33;;;;;;;3.75;1.00;;;;;;;15.91;67.40;100909.06;10337561;28;20512;-55
2023/10/08 23:38:38;;;;;;;3.92;1.00;;;;;;;15.91;67.35;100900.94;10336526;28;20129;-55
2023/10/08 23:43:40;;;;;;;3.85;0.85;;;;;;;15.92;67.22;100897.19;10333571;28;20105;-55
2023/10/08 23:49:16;;;;;;;4.18;1.08;;;;;;;15.92;67.31;100899.91;10338541;28;20050;-55
2023/10/08 23:54:15;;;;;;;3.80;0.95;;;;;;;15.88;67.21;100892.34;10333457;28;20051;-57
2023/10/08 23:59:23;;;;;;;3.67;1.08;;;;;;;15.82;67.37;100891.28;10337360;28;20148;-57
